Time;durP1;ratioP1;P1;durP2;ratioP2;P2;SDS_P1;SDS_P2;PMS_P1;PMS_P2;Temp;Humidity;BMP_temperature;BMP_pressure;BME280_temperature;BME280_humidity;BME280_pressure;Samples;Min_cycle;Max_cycle;Signal;HPM_P1;HPM_P2
2022/11/04 00:01:48;;;;;;;;;;;;;;;11.58;100.00;96807.50;5099161;28;19924;-61
2022/11/04 00:04:15;;;;;;;;;;;;;;;11.61;100.00;96810.38;5097809;28;19924;-61
2022/11/04 00:06:42;;;;;;;;;;;;;;;11.63;100.00;96805.53;5098810;28;19925;-62
2022/11/04 00:09:09;;;;;;;;;;;;;;;11.63;100.00;96824.25;5101356;28;19995;-61
2022/11/04 00:14:22;;;;;;;;;;;;;;;11.61;100.00;96829.09;5101786;28;19928;-62
2022/11/04 00:28:41;;;;;;;;;;;;;;;11.60;100.00;96846.25;5105594;28;19924;-62
2022/11/04 00:30:41;;;;;;;;;;;;;;;11.63;100.00;96834.97;5091210;28;19924;-61
2022/11/04 00:33:24;;;;;;;;;;;;;;;11.59;100.00;96841.97;5101730;28;20026;-62
2022/11/04 00:35:50;;;;;;;;;;;;;;;11.49;100.00;96830.66;5103857;28;19930;-61
2022/11/04 00:38:17;;;;;;;;;;;;;;;11.41;100.00;96837.50;5105254;28;19946;-61
2022/11/04 00:40:43;;;;;;;;;;;;;;;11.41;100.00;96850.84;5103532;28;19959;-61
2022/11/04 00:43:11;;;;;;;;;;;;;;;11.45;100.00;96840.38;5101489;28;20138;-61
2022/11/04 00:45:38;;;;;;;;;;;;;;;11.45;100.00;96840.38;5101862;28;19984;-61
2022/11/04 00:48:04;;;;;;;;;;;;;;;11.54;100.00;96852.78;5104690;28;20535;-62
2022/11/04 00:50:31;;;;;;;;;;;;;;;11.61;100.00;96850.50;5104760;28;19924;-62
2022/11/04 00:52:58;;;;;;;;;;;;;;;11.55;100.00;96857.00;5096598;28;19956;-61
2022/11/04 00:55:25;;;;;;;;;;;;;;;11.48;100.00;96867.28;5099692;28;19974;-61
2022/11/04 00:57:51;;;;;;;;;;;;;;;11.55;100.00;96862.38;5102144;28;19931;-61
2022/11/04 01:00:19;;;;;;;;;;;;;;;11.64;100.00;96863.28;5100998;28;19968;-62
2022/11/04 01:02:46;;;;;;;;;;;;;;;11.68;100.00;96866.94;5102301;28;19924;-62
2022/11/04 01:05:12;;;;;;;;;;;;;;;11.69;100.00;96873.91;5104610;28;20000;-62
2022/11/04 01:07:38;;;;;;;;;;;;;;;11.72;100.00;96865.31;5103761;28;20029;-62
2022/11/04 01:10:05;;;;;;;;;;;;;;;11.63;100.00;96872.41;5100744;28;20000;-62
2022/11/04 01:12:32;;;;;;;;;;;;;;;11.62;100.00;96884.19;5100814;28;20035;-62
2022/11/04 01:14:58;;;;;;;;;;;;;;;11.71;100.00;96895.81;5104001;28;19987;-61
2022/11/04 01:17:26;;;;;;;;;;;;;;;11.71;100.00;96893.13;5104345;28;19948;-62
2022/11/04 01:19:52;;;;;;;;;;;;;;;11.63;100.00;96901.81;5101522;28;20015;-61
2022/11/04 01:22:18;;;;;;;;;;;;;;;11.68;100.00;96908.94;5099571;28;19961;-62
2022/11/04 01:24:45;;;;;;;;;;;;;;;11.64;100.00;96914.06;5093354;28;19925;-62
2022/11/04 01:27:11;;;;;;;;;;;;;;;11.58;100.00;96912.56;5104164;28;19924;-61
2022/11/04 01:29:37;;;;;;;;;;;;;;;11.59;100.00;96919.53;5103669;28;20026;-62
2022/11/04 01:32:04;;;;;;;;;;;;;;;11.57;100.00;96919.03;5100491;28;20353;-62
2022/11/04 01:34:31;;;;;;;;;;;;;;;11.68;100.00;96916.97;5100542;28;19971;-62
2022/11/04 01:36:58;;;;;;;;;;;;;;;11.68;100.00;96925.00;5103797;28;19924;-61
2022/11/04 01:39:24;;;;;;;;;;;;;;;11.58;100.00;96915.25;5104155;28;19952;-62
2022/11/04 01:41:51;;;;;;;;;;;;;;;11.61;100.00;96922.69;5101298;28;19924;-61
2022/11/04 01:44:36;;;;;;;;;;;;;;;11.64;100.00;96924.78;5100430;28;19924;-61
2022/11/04 01:47:03;;;;;;;;;;;;;;;11.65;100.00;96928.25;5100107;28;20027;-61
2022/11/04 01:49:34;;;;;;;;;;;;;;;11.73;100.00;96925.72;5100529;28;19935;-62
2022/11/04 01:52:02;;;;;;;;;;;;;;;11.76;100.00;96933.16;5100028;28;19935;-61
2022/11/04 01:54:29;;;;;;;;;;;;;;;11.68;100.00;96931.13;5100043;28;19995;-61
2022/11/04 01:56:56;;;;;;;;;;;;;;;11.71;100.00;96924.44;5102557;28;19992;-62
2022/11/04 01:59:25;;;;;;;;;;;;;;;11.64;100.00;96946.16;5103647;28;20246;-62
2022/11/04 02:01:52;;;;;;;;;;;;;;;11.65;100.00;96944.28;5100867;28;20669;-62
2022/11/04 02:04:26;;;;;;;;;;;;;;;11.66;100.00;96954.72;5099794;28;19947;-61
2022/11/04 02:06:55;;;;;;;;;;;;;;;11.67;100.00;96950.94;5102169;28;19928;-61
2022/11/04 02:09:22;;;;;;;;;;;;;;;11.76;100.00;96951.88;5103256;28;19966;-61
2022/11/04 02:14:34;;;;;;;;;;;;;;;11.68;100.00;96957.06;5099478;28;19947;-61
2022/11/04 02:17:04;;;;;;;;;;;;;;;11.71;100.00;96951.97;5091278;28;19992;-62
2022/11/04 02:19:45;;;;;;;;;;;;;;;11.77;100.00;96960.69;5091203;28;19928;-61
2022/11/04 02:22:27;;;;;;;;;;;;;;;11.80;100.00;96952.88;5094885;28;20015;-62
2022/11/04 02:25:03;;;;;;;;;;;;;;;11.73;100.00;96955.13;5093359;28;19988;-62
2022/11/04 02:27:39;;;;;;;;;;;;;;;11.69;100.00;96962.16;5101811;28;19931;-60
2022/11/04 02:30:08;;;;;;;;;;;;;;;11.71;100.00;96967.22;5090987;28;19959;-62
2022/11/04 02:32:39;;;;;;;;;;;;;;;11.64;100.00;96967.56;5090634;28;19924;-61
2022/11/04 02:35:09;;;;;;;;;;;;;;;11.69;100.00;96974.72;5095418;28;19992;-61
2022/11/04 02:37:41;;;;;;;;;;;;;;;11.71;100.00;96980.59;5102717;28;19930;-62
2022/11/04 02:40:13;;;;;;;;;;;;;;;11.77;100.00;96972.19;5099235;28;20011;-61
2022/11/04 02:42:43;;;;;;;;;;;;;;;11.77;100.00;96982.09;5099869;28;19999;-61
2022/11/04 02:45:17;;;;;;;;;;;;;;;11.68;100.00;96979.28;5102785;28;19960;-62
2022/11/04 02:47:45;;;;;;;;;;;;;;;11.63;100.00;96987.38;5101349;28;19956;-61
2022/11/04 02:50:14;;;;;;;;;;;;;;;11.78;100.00;96978.34;5099195;28;20055;-61
2022/11/04 02:52:43;;;;;;;;;;;;;;;11.82;100.00;96982.81;5098913;28;19970;-61
2022/11/04 02:55:11;;;;;;;;;;;;;;;11.80;100.00;96984.19;5095406;28;19924;-61
2022/11/04 02:57:39;;;;;;;;;;;;;;;11.82;100.00;96985.47;5102000;28;19996;-62
2022/11/04 03:00:07;;;;;;;;;;;;;;;11.82;100.00;96995.41;5098946;28;19995;-62
2022/11/04 03:02:43;;;;;;;;;;;;;;;11.83;100.00;96988.94;5098625;28;19932;-62
2022/11/04 03:05:11;;;;;;;;;;;;;;;11.72;100.00;96991.00;5090146;28;20003;-62
2022/11/04 03:07:40;;;;;;;;;;;;;;;11.84;100.00;96983.31;5090196;28;19988;-62
2022/11/04 03:10:08;;;;;;;;;;;;;;;11.86;100.00;96980.34;5090239;28;20494;-62
2022/11/04 03:12:38;;;;;;;;;;;;;;;11.79;100.00;96978.03;5090177;28;19954;-61
2022/11/04 03:15:07;;;;;;;;;;;;;;;11.84;100.00;96974.50;5090140;28;19968;-62
2022/11/04 03:17:40;;;;;;;;;;;;;;;11.89;100.00;96979.75;5090315;28;19993;-62
2022/11/04 03:20:09;;;;;;;;;;;;;;;11.91;100.00;96989.06;5098656;28;19970;-61
2022/11/04 03:22:36;;;;;;;;;;;;;;;11.93;100.00;96988.00;5098286;28;19952;-62
2022/11/04 03:25:03;;;;;;;;;;;;;;;11.93;100.00;96982.63;5093720;28;19932;-62
2022/11/04 03:27:33;;;;;;;;;;;;;;;11.85;100.00;96990.25;5102155;28;19942;-61
2022/11/04 03:30:02;;;;;;;;;;;;;;;11.87;100.00;96987.28;5098356;28;20015;-61
2022/11/04 03:32:34;;;;;;;;;;;;;;;11.87;100.00;96993.44;5098487;28;20557;-61
2022/11/04 03:35:02;;;;;;;;;;;;;;;11.86;100.00;96997.19;5089658;28;19924;-62
2022/11/04 03:37:28;;;;;;;;;;;;;;;11.90;100.00;96987.50;5090009;28;19936;-62
2022/11/04 03:39:55;;;;;;;;;;;;;;;11.95;100.00;96983.13;5089905;28;19931;-61
2022/11/04 03:42:23;;;;;;;;;;;;;;;11.88;100.00;96994.25;5090014;28;20019;-61
2022/11/04 03:44:50;;;;;;;;;;;;;;;11.84;100.00;96988.69;5089007;28;19980;-61
2022/11/04 03:47:17;;;;;;;;;;;;;;;11.80;100.00;96990.34;5090058;28;19925;-60
2022/11/04 03:49:44;;;;;;;;;;;;;;;11.70;100.00;96989.69;5089678;28;19988;-61
2022/11/04 03:52:12;;;;;;;;;;;;;;;11.76;100.00;96992.00;5089636;28;19924;-61
2022/11/04 03:54:39;;;;;;;;;;;;;;;11.77;100.00;96996.28;5090011;28;19983;-62
2022/11/04 03:57:17;;;;;;;;;;;;;;;11.73;100.00;96989.91;5101576;28;20426;-62
2022/11/04 03:59:59;;;;;;;;;;;;;;;11.75;100.00;96998.47;5100088;28;19963;-61
2022/11/04 04:02:28;;;;;;;;;;;;;;;11.87;100.00;96998.78;5098023;28;19951;-61
2022/11/04 04:04:57;;;;;;;;;;;;;;;11.81;100.00;97007.97;5100423;28;20019;-61
2022/11/04 04:07:28;;;;;;;;;;;;;;;11.79;100.00;97001.34;5101535;28;20324;-61
2022/11/04 04:09:56;;;;;;;;;;;;;;;11.79;100.00;97007.47;5098708;28;19952;-61
2022/11/04 04:12:26;;;;;;;;;;;;;;;11.69;100.00;97012.16;5097784;28;20007;-60
2022/11/04 04:14:54;;;;;;;;;;;;;;;11.65;100.00;97019.16;5100436;28;19984;-61
2022/11/04 04:17:23;;;;;;;;;;;;;;;11.69;100.00;97009.50;5101467;28;19978;-61
2022/11/04 04:19:52;;;;;;;;;;;;;;;11.79;100.00;97010.13;5099205;28;19932;-61
2022/11/04 04:22:21;;;;;;;;;;;;;;;11.79;100.00;97007.47;5097909;28;19924;-62
2022/11/04 04:27:36;;;;;;;;;;;;;;;11.76;100.00;97001.94;5101243;28;19946;-62
2022/11/04 04:30:05;;;;;;;;;;;;;;;11.65;100.00;97006.59;5097817;28;19924;-61
2022/11/04 04:32:34;;;;;;;;;;;;;;;11.66;100.00;97002.84;5097755;28;19929;-61
2022/11/04 04:37:45;;;;;;;;;;;;;;;11.68;100.00;96995.31;5089158;28;19928;-61
2022/11/04 04:45:58;;;;;;;;;;;;;;;11.84;100.00;96980.66;5078128;28;19924;-62
2022/11/04 04:48:24;;;;;;;;;;;;;;;11.88;100.00;96973.59;5078840;28;19954;-61
2022/11/04 04:50:55;;;;;;;;;;;;;;;11.70;100.00;96979.78;5067428;28;20023;-61
2022/11/04 04:53:22;;;;;;;;;;;;;;;11.79;100.00;96972.69;5088883;28;20110;-60
2022/11/04 04:55:49;;;;;;;;;;;;;;;11.80;100.00;96960.91;5097674;28;19924;-61
2022/11/04 04:58:16;;;;;;;;;;;;;;;11.82;100.00;96964.06;5101297;28;19975;-61
2022/11/04 05:00:42;;;;;;;;;;;;;;;11.82;100.00;96966.75;5102091;28;19980;-62
2022/11/04 05:03:08;;;;;;;;;;;;;;;11.86;100.00;96965.09;5104255;28;19956;-62
2022/11/04 05:05:35;;;;;;;;;;;;;;;11.86;100.00;96970.44;5104365;28;20004;-61
2022/11/04 05:08:04;;;;;;;;;;;;;;;11.84;100.00;96967.28;5092501;28;20269;-62
2022/11/04 05:10:31;;;;;;;;;;;;;;;11.83;100.00;96967.56;5092413;28;19950;-62
2022/11/04 05:15:44;;;;;;;;;;;;;;;11.60;100.00;96969.25;5091883;28;19974;-61
2022/11/04 05:18:11;;;;;;;;;;;;;;;11.51;100.00;96964.84;5092241;28;19994;-62
2022/11/04 05:20:39;;;;;;;;;;;;;;;11.59;100.00;96956.97;5092222;28;20031;-61
2022/11/04 05:23:05;;;;;;;;;;;;;;;11.67;100.00;96950.13;5091657;28;19935;-62
2022/11/04 05:25:32;;;;;;;;;;;;;;;11.63;100.00;96944.59;5099988;28;20031;-61
2022/11/04 05:28:01;;;;;;;;;;;;;;;11.55;100.00;96941.78;5100594;28;19925;-62
2022/11/04 05:30:28;;;;;;;;;;;;;;;11.57;100.00;96939.63;5100573;28;19960;-63
2022/11/04 05:32:54;;;;;;;;;;;;;;;11.53;100.00;96947.44;5102757;28;20004;-61
2022/11/04 05:35:20;;;;;;;;;;;;;;;11.55;100.00;96942.56;5103837;28;19993;-61
2022/11/04 05:37:47;;;;;;;;;;;;;;;11.58;100.00;96959.91;5101974;28;19987;-61
2022/11/04 05:40:13;;;;;;;;;;;;;;;11.56;100.00;96978.94;5100270;28;19964;-62
2022/11/04 05:42:39;;;;;;;;;;;;;;;11.62;100.00;96988.47;5100967;28;20058;-61
2022/11/04 05:45:08;;;;;;;;;;;;;;;11.58;100.00;96990.13;5103780;28;19970;-62
2022/11/04 05:47:34;;;;;;;;;;;;;;;11.65;100.00;96982.53;5102853;28;19936;-62
2022/11/04 05:50:01;;;;;;;;;;;;;;;11.64;100.00;96982.81;5091481;28;19946;-61
2022/11/04 05:52:27;;;;;;;;;;;;;;;11.67;100.00;96974.19;5090700;28;19988;-61
2022/11/04 05:54:53;;;;;;;;;;;;;;;11.62;100.00;96985.00;5093803;28;19931;-61
2022/11/04 05:57:20;;;;;;;;;;;;;;;11.53;100.00;96992.09;5103638;28;19920;-61
2022/11/04 05:59:46;;;;;;;;;;;;;;;11.53;100.00;97003.59;5101862;28;19924;-61
2022/11/04 06:02:14;;;;;;;;;;;;;;;11.64;100.00;96996.19;5099857;28;20011;-61
2022/11/04 06:04:40;;;;;;;;;;;;;;;11.53;100.00;97016.94;5100533;28;19935;-62
2022/11/04 06:07:07;;;;;;;;;;;;;;;11.54;100.00;97010.53;5103114;28;20559;-61
2022/11/04 06:09:42;;;;;;;;;;;;;;;11.45;100.00;97006.13;5102676;28;19954;-61
2022/11/04 06:12:09;;;;;;;;;;;;;;;11.48;100.00;97000.19;5091146;28;19935;-61
2022/11/04 06:14:35;;;;;;;;;;;;;;;11.58;100.00;97000.81;5091193;28;19980;-61
2022/11/04 06:17:01;;;;;;;;;;;;;;;11.52;100.00;97004.66;5091254;28;19956;-62
2022/11/04 06:19:29;;;;;;;;;;;;;;;11.61;100.00;96997.56;5091411;28;19992;-61
2022/11/04 06:21:56;;;;;;;;;;;;;;;11.64;100.00;96999.66;5091169;28;19963;-61
2022/11/04 06:24:23;;;;;;;;;;;;;;;11.58;100.00;97011.50;5090966;28;19995;-61
2022/11/04 06:26:49;;;;;;;;;;;;;;;11.52;100.00;97011.88;5101351;28;19974;-62
2022/11/04 06:29:15;;;;;;;;;;;;;;;11.54;100.00;97020.41;5103158;28;19924;-62
2022/11/04 06:31:42;;;;;;;;;;;;;;;11.49;100.00;97021.28;5102023;28;19931;-61
2022/11/04 06:34:08;;;;;;;;;;;;;;;11.52;100.00;97023.38;5099275;28;19963;-62
2022/11/04 06:36:36;;;;;;;;;;;;;;;11.53;100.00;97019.63;5099143;28;19989;-61
2022/11/04 06:39:03;;;;;;;;;;;;;;;11.55;100.00;97014.78;5090770;28;19925;-61
2022/11/04 06:41:30;;;;;;;;;;;;;;;11.57;100.00;97009.94;5090480;28;19950;-61
2022/11/04 06:43:56;;;;;;;;;;;;;;;11.52;100.00;97019.91;5090283;28;19955;-62
2022/11/04 06:46:27;;;;;;;;;;;;;;;11.54;100.00;97020.41;5090495;28;20610;-62
2022/11/04 06:48:54;;;;;;;;;;;;;;;11.56;100.00;97024.38;5090479;28;19964;-61
2022/11/04 06:51:21;;;;;;;;;;;;;;;11.52;100.00;97031.41;5090620;28;20015;-62
2022/11/04 06:53:48;;;;;;;;;;;;;;;11.55;100.00;97038.84;5089121;28;19966;-63
2022/11/04 06:56:15;;;;;;;;;;;;;;;11.62;100.00;97033.13;5098826;28;19992;-61
2022/11/04 06:58:41;;;;;;;;;;;;;;;11.58;100.00;97032.91;5099743;28;19928;-61
2022/11/04 07:01:07;;;;;;;;;;;;;;;11.62;100.00;97031.25;5102293;28;19930;-62
2022/11/04 07:03:34;;;;;;;;;;;;;;;11.65;100.00;97028.00;5102179;28;19949;-61
2022/11/04 07:06:05;;;;;;;;;;;;;;;11.63;100.00;97027.50;5098488;28;19928;-61
2022/11/04 07:08:31;;;;;;;;;;;;;;;11.55;100.00;97022.78;5098281;28;19931;-61
2022/11/04 07:10:59;;;;;;;;;;;;;;;11.65;100.00;97030.66;5101141;28;19924;-62
2022/11/04 07:13:25;;;;;;;;;;;;;;;11.65;100.00;97025.31;5101864;28;19973;-61
2022/11/04 07:15:51;;;;;;;;;;;;;;;11.60;100.00;97011.25;5099673;28;19924;-63
2022/11/04 07:18:18;;;;;;;;;;;;;;;11.58;100.00;97019.53;5098401;28;19924;-61
2022/11/04 07:20:44;;;;;;;;;;;;;;;11.49;100.00;97017.81;5098886;28;19951;-61
2022/11/04 07:23:10;;;;;;;;;;;;;;;11.50;100.00;97020.22;5096478;28;20013;-61
2022/11/04 07:25:37;;;;;;;;;;;;;;;11.61;100.00;97013.59;5098646;28;19963;-61
2022/11/04 07:28:05;;;;;;;;;;;;;;;11.65;100.00;97000.44;5098663;28;19992;-61
2022/11/04 07:30:31;;;;;;;;;;;;;;;11.70;100.00;96987.81;5098740;28;19924;-62
2022/11/04 07:32:58;;;;;;;;;;;;;;;11.60;100.00;96977.28;5101414;28;19959;-61
2022/11/04 07:35:24;;;;;;;;;;;;;;;11.65;100.00;96968.38;5101841;28;19924;-61
2022/11/04 07:37:51;;;;;;;;;;;;;;;11.66;100.00;96965.41;5099375;28;19924;-61
2022/11/04 07:40:17;;;;;;;;;;;;;;;11.66;100.00;96973.44;5098263;28;19971;-62
2022/11/04 07:42:43;;;;;;;;;;;;;;;11.64;100.00;96972.13;5099287;28;19967;-61
2022/11/04 07:45:11;;;;;;;;;;;;;;;11.56;100.00;96989.63;5101533;28;19967;-61
2022/11/04 07:47:37;;;;;;;;;;;;;;;11.46;100.00;97003.16;5101747;28;19935;-62
2022/11/04 07:50:05;;;;;;;;;;;;;;;11.42;100.00;97004.81;5098492;28;19924;-62
2022/11/04 07:52:31;;;;;;;;;;;;;;;11.42;100.00;96996.00;5098297;28;19952;-62
2022/11/04 07:54:57;;;;;;;;;;;;;;;11.42;100.00;96991.44;5092844;28;19924;-61
2022/11/04 07:57:24;;;;;;;;;;;;;;;11.39;100.00;97000.84;5101766;28;20754;-61
2022/11/04 07:59:50;;;;;;;;;;;;;;;11.44;100.00;97007.19;5098627;28;19968;-61
2022/11/04 08:02:18;;;;;;;;;;;;;;;11.44;100.00;97016.03;5098111;28;19967;-61
2022/11/04 08:04:44;;;;;;;;;;;;;;;11.37;100.00;97023.59;5099556;28;19983;-62
2022/11/04 08:07:10;;;;;;;;;;;;;;;11.31;100.00;97022.09;5101524;28;20019;-61
2022/11/04 08:09:37;;;;;;;;;;;;;;;11.37;100.00;97036.97;5101570;28;19992;-61
2022/11/04 08:12:04;;;;;;;;;;;;;;;11.47;100.00;97044.84;5098022;28;19936;-62
2022/11/04 08:14:30;;;;;;;;;;;;;;;11.53;100.00;97046.38;5097848;28;19920;-61
2022/11/04 08:16:56;;;;;;;;;;;;;;;11.37;100.00;97058.34;5100830;28;20011;-61
2022/11/04 08:19:24;;;;;;;;;;;;;;;11.31;100.00;97070.19;5101307;28;19987;-62
2022/11/04 08:21:50;;;;;;;;;;;;;;;11.38;100.00;97075.97;5099265;28;20061;-62
2022/11/04 08:24:17;;;;;;;;;;;;;;;11.28;100.00;97074.25;5089092;28;19984;-61
2022/11/04 08:26:45;;;;;;;;;;;;;;;11.30;100.00;97069.38;5098790;28;19935;-61
2022/11/04 08:29:11;;;;;;;;;;;;;;;11.22;100.00;97061.22;5099774;28;19946;-62
2022/11/04 08:31:38;;;;;;;;;;;;;;;11.34;100.00;97056.25;5102286;28;20009;-62
2022/11/04 08:34:07;;;;;;;;;;;;;;;11.38;100.00;97052.72;5101729;28;19925;-63
2022/11/04 08:36:36;;;;;;;;;;;;;;;11.44;100.00;97061.47;5101595;28;19928;-61
2022/11/04 08:39:03;;;;;;;;;;;;;;;11.24;100.00;97065.19;5101434;28;19924;-62
2022/11/04 08:41:30;;;;;;;;;;;;;;;11.25;100.00;97076.69;5101680;28;19991;-62
2022/11/04 08:43:59;;;;;;;;;;;;;;;11.42;100.00;97060.16;5104410;28;19924;-62
2022/11/04 08:46:26;;;;;;;;;;;;;;;11.47;100.00;97060.09;5105058;28;19924;-61
2022/11/04 08:48:52;;;;;;;;;;;;;;;11.47;100.00;97058.22;5102661;28;19924;-62
2022/11/04 08:51:20;;;;;;;;;;;;;;;11.54;100.00;97052.50;5101497;28;20074;-61
2022/11/04 08:53:48;;;;;;;;;;;;;;;11.58;100.00;97051.63;5096426;28;19924;-61
2022/11/04 08:56:16;;;;;;;;;;;;;;;11.58;100.00;97059.66;5101106;28;19991;-62
2022/11/04 08:58:42;;;;;;;;;;;;;;;11.59;100.00;97053.22;5102182;28;20014;-61
2022/11/04 09:01:09;;;;;;;;;;;;;;;11.57;100.00;97034.00;5104825;28;19934;-62
2022/11/04 09:03:37;;;;;;;;;;;;;;;11.42;100.00;97031.53;5104645;28;19924;-61
2022/11/04 09:06:03;;;;;;;;;;;;;;;11.56;100.00;97031.63;5101112;28;19975;-61
2022/11/04 09:08:30;;;;;;;;;;;;;;;11.60;100.00;97024.63;5100929;28;19988;-62
2022/11/04 09:10:57;;;;;;;;;;;;;;;11.57;100.00;97031.34;5103756;28;20026;-61
2022/11/04 09:13:23;;;;;;;;;;;;;;;11.48;100.00;97022.34;5104227;28;20004;-62
2022/11/04 09:15:50;;;;;;;;;;;;;;;11.62;100.00;97020.56;5101271;28;19991;-62
2022/11/04 09:18:16;;;;;;;;;;;;;;;11.62;100.00;97027.78;5100733;28;19960;-61
2022/11/04 09:20:43;;;;;;;;;;;;;;;11.57;100.00;97028.66;5101790;28;19980;-62
2022/11/04 09:23:10;;;;;;;;;;;;;;;11.61;100.00;97028.84;5099389;28;20276;-62
2022/11/04 09:25:36;;;;;;;;;;;;;;;11.66;100.00;97021.56;5100726;28;19954;-61
2022/11/04 09:28:04;;;;;;;;;;;;;;;11.59;100.00;97021.13;5100748;28;19932;-62
2022/11/04 09:30:31;;;;;;;;;;;;;;;11.55;100.00;97028.13;5100936;28;19924;-61
2022/11/04 09:32:58;;;;;;;;;;;;;;;11.57;100.00;97020.66;5103568;28;19956;-61
2022/11/04 09:35:26;;;;;;;;;;;;;;;11.58;100.00;97022.22;5104771;28;19924;-61
2022/11/04 09:37:52;;;;;;;;;;;;;;;11.60;100.00;97024.63;5102201;28;19951;-61
2022/11/04 09:40:20;;;;;;;;;;;;;;;11.56;100.00;97011.03;5100983;28;19924;-61
2022/11/04 09:42:53;;;;;;;;;;;;;;;11.66;100.00;97020.78;5101105;28;19980;-61
2022/11/04 09:45:24;;;;;;;;;;;;;;;11.53;100.00;97014.28;5104505;28;19924;-60
2022/11/04 09:47:52;;;;;;;;;;;;;;;11.67;100.00;97009.78;5102142;28;19959;-62
2022/11/04 09:50:20;;;;;;;;;;;;;;;11.61;100.00;97005.59;5100376;28;19927;-62
2022/11/04 09:52:50;;;;;;;;;;;;;;;11.57;100.00;97003.81;5100100;28;20491;-62
2022/11/04 09:55:18;;;;;;;;;;;;;;;11.63;100.00;96999.97;5097533;28;19992;-61
2022/11/04 09:57:54;;;;;;;;;;;;;;;11.58;100.00;96990.13;5102492;28;20035;-61
2022/11/04 10:00:22;;;;;;;;;;;;;;;11.64;100.00;96986.28;5100105;28;19992;-61
2022/11/04 10:02:54;;;;;;;;;;;;;;;11.61;100.00;96989.53;5100121;28;19929;-62
2022/11/04 10:05:32;;;;;;;;;;;;;;;11.65;100.00;96985.22;5103558;28;19924;-62
2022/11/04 10:08:14;;;;;;;;;;;;;;;11.50;100.00;96990.78;5100151;28;20006;-61
2022/11/04 10:10:44;;;;;;;;;;;;;;;11.43;100.00;96981.53;5100386;28;20331;-61
2022/11/04 10:13:21;;;;;;;;;;;;;;;11.55;100.00;96974.66;5103469;28;19938;-61
2022/11/04 10:15:55;;;;;;;;;;;;;;;11.52;100.00;96974.44;5101873;28;19951;-62
2022/11/04 10:18:27;;;;;;;;;;;;;;;11.61;100.00;96972.69;5101499;28;19928;-62
2022/11/04 10:20:57;;;;;;;;;;;;;;;11.50;100.00;96976.63;5103230;28;19991;-60
2022/11/04 10:23:31;;;;;;;;;;;;;;;11.43;100.00;96977.00;5097393;28;20389;-62
2022/11/04 10:26:00;;;;;;;;;;;;;;;11.51;100.00;96976.34;5100840;28;19980;-61
2022/11/04 10:28:34;;;;;;;;;;;;;;;11.54;100.00;96997.16;5100045;28;19960;-62
2022/11/04 10:31:03;;;;;;;;;;;;;;;11.47;100.00;96999.41;5103389;28;19931;-61
2022/11/04 10:33:32;;;;;;;;;;;;;;;11.51;100.00;96997.75;5103240;28;19924;-61
2022/11/04 10:36:01;;;;;;;;;;;;;;;11.62;100.00;97004.50;5099591;28;19925;-61
2022/11/04 10:38:33;;;;;;;;;;;;;;;11.56;100.00;97008.34;5098097;28;19925;-62
2022/11/04 10:40:59;;;;;;;;;;;;;;;11.71;100.00;97005.47;5102748;28;19954;-62
2022/11/04 10:43:28;;;;;;;;;;;;;;;11.73;100.00;97002.47;5103168;28;19986;-62
2022/11/04 10:46:01;;;;;;;;;;;;;;;11.57;100.00;96991.22;5100183;28;19991;-62
2022/11/04 10:48:32;;;;;;;;;;;;;;;11.62;100.00;96980.44;5099421;28;19943;-62
2022/11/04 10:50:59;;;;;;;;;;;;;;;11.68;100.00;96978.47;5102089;28;19995;-62
2022/11/04 10:53:26;;;;;;;;;;;;;;;11.69;100.00;96975.53;5095745;28;19928;-62
2022/11/04 10:55:56;;;;;;;;;;;;;;;11.82;100.00;96979.38;5098842;28;19965;-62
2022/11/04 10:58:24;;;;;;;;;;;;;;;11.83;100.00;96979.06;5099312;28;19928;-61
2022/11/04 11:00:51;;;;;;;;;;;;;;;11.61;100.00;96976.16;5100836;28;19991;-61
2022/11/04 11:03:30;;;;;;;;;;;;;;;11.66;100.00;96978.78;5102455;28;19925;-62
2022/11/04 11:06:14;;;;;;;;;;;;;;;11.76;100.00;96975.19;5099194;28;20028;-62
2022/11/04 11:08:41;;;;;;;;;;;;;;;11.58;100.00;96971.41;5099246;28;19930;-62
2022/11/04 11:11:07;;;;;;;;;;;;;;;11.64;100.00;96975.59;5100721;28;19992;-62
2022/11/04 11:13:36;;;;;;;;;;;;;;;11.72;100.00;96966.94;5102058;28;19964;-61
2022/11/04 11:16:06;;;;;;;;;;;;;;;11.80;100.00;96960.13;5090096;28;19988;-63
2022/11/04 11:18:36;;;;;;;;;;;;;;;11.64;100.00;96954.19;5090023;28;19935;-62
2022/11/04 11:21:08;;;;;;;;;;;;;;;11.72;100.00;96950.09;5090194;28;19964;-61
2022/11/04 11:23:36;;;;;;;;;;;;;;;11.74;100.00;96945.25;5089891;28;19931;-61
2022/11/04 11:26:04;;;;;;;;;;;;;;;11.65;100.00;96949.66;5098239;28;19924;-61
2022/11/04 11:28:36;;;;;;;;;;;;;;;11.63;100.00;96949.94;5098429;28;19960;-61
2022/11/04 11:31:07;;;;;;;;;;;;;;;11.71;100.00;96957.31;5098387;28;19932;-61
2022/11/04 11:33:36;;;;;;;;;;;;;;;11.70;100.00;96945.03;5098066;28;20015;-62
2022/11/04 11:36:10;;;;;;;;;;;;;;;11.72;100.00;96939.41;5097244;28;19974;-62
2022/11/04 11:38:37;;;;;;;;;;;;;;;11.57;100.00;96944.97;5098231;28;19924;-62
2022/11/04 11:41:05;;;;;;;;;;;;;;;11.61;100.00;96945.97;5101408;28;19992;-61
2022/11/04 11:43:34;;;;;;;;;;;;;;;11.70;100.00;96947.69;5101477;28;19971;-62
2022/11/04 11:46:00;;;;;;;;;;;;;;;11.59;100.00;96953.50;5098468;28;19952;-62
2022/11/04 11:48:28;;;;;;;;;;;;;;;11.62;100.00;96942.22;5098307;28;19964;-62
2022/11/04 11:50:57;;;;;;;;;;;;;;;11.68;100.00;96943.72;5100817;28;20440;-62
2022/11/04 11:53:24;;;;;;;;;;;;;;;11.52;100.00;96943.16;5095407;28;19992;-61
2022/11/04 11:56:02;;;;;;;;;;;;;;;11.62;100.00;96947.56;5098096;28;19924;-61
2022/11/04 11:58:32;;;;;;;;;;;;;;;11.59;100.00;96959.63;5098540;28;19931;-61
2022/11/04 12:01:01;;;;;;;;;;;;;;;11.62;100.00;96967.06;5101567;28;19970;-60
2022/11/04 12:03:31;;;;;;;;;;;;;;;11.58;100.00;96974.09;5101664;28;20023;-61
2022/11/04 12:06:13;;;;;;;;;;;;;;;11.60;100.00;96974.59;5099287;28;19927;-62
2022/11/04 12:08:49;;;;;;;;;;;;;;;11.65;100.00;96968.38;5103058;28;19925;-62
2022/11/04 12:11:20;;;;;;;;;;;;;;;11.57;100.00;96985.88;5105797;28;19978;-61
2022/11/04 12:13:49;;;;;;;;;;;;;;;11.56;100.00;96983.47;5104189;28;19959;-62
2022/11/04 12:16:21;;;;;;;;;;;;;;;11.56;100.00;96981.59;5101979;28;19955;-62
2022/11/04 12:19:07;;;;;;;;;;;;;;;11.62;100.00;96991.13;5103370;28;19931;-62
2022/11/04 12:21:38;;;;;;;;;;;;;;;11.71;100.00;96991.28;5105595;28;19924;-62
2022/11/04 12:24:13;;;;;;;;;;;;;;;11.58;100.00;96979.44;5093504;28;19924;-62
2022/11/04 12:26:44;;;;;;;;;;;;;;;11.51;100.00;96979.03;5102721;28;19925;-61
2022/11/04 12:29:40;;;;;;;;;;;;;;;11.58;100.00;96973.28;5104657;28;19920;-61
2022/11/04 12:32:13;;;;;;;;;;;;;;;11.46;100.00;96978.28;5067178;28;20032;-62
2022/11/04 12:34:46;;;;;;;;;;;;;;;11.45;100.00;96982.84;5093801;28;19924;-63
2022/11/04 12:37:20;;;;;;;;;;;;;;;11.42;100.00;96988.75;5105313;28;19979;-62
2022/11/04 12:39:58;;;;;;;;;;;;;;;11.49;100.00;96994.53;5103687;28;19931;-61
2022/11/04 12:42:30;;;;;;;;;;;;;;;11.58;100.00;96995.47;5101489;28;19989;-62
2022/11/04 12:45:03;;;;;;;;;;;;;;;11.59;100.00;96998.94;5104507;28;20022;-62
2022/11/04 12:47:34;;;;;;;;;;;;;;;11.57;100.00;97001.94;5105128;28;19992;-61
2022/11/04 12:50:18;;;;;;;;;;;;;;;11.59;100.00;96996.28;5101382;28;19966;-61
2022/11/04 12:53:02;;;;;;;;;;;;;;;11.68;100.00;97003.34;5102173;28;20021;-62
2022/11/04 12:55:43;;;;;;;;;;;;;;;11.70;100.00;97003.88;5100663;28;19924;-61
2022/11/04 12:58:17;;;;;;;;;;;;;;;11.70;100.00;97006.53;5101589;28;20376;-61
2022/11/04 13:00:45;;;;;;;;;;;;;;;11.69;100.00;96998.78;5102289;28;19983;-62
2022/11/04 13:03:14;;;;;;;;;;;;;;;11.73;100.00;97013.19;5105180;28;19924;-62
2022/11/04 13:05:43;;;;;;;;;;;;;;;11.74;100.00;97012.91;5104142;28;19959;-61
2022/11/04 13:08:14;;;;;;;;;;;;;;;11.62;100.00;96996.50;5101033;28;20677;-62
2022/11/04 13:10:45;;;;;;;;;;;;;;;11.67;100.00;97004.41;5101837;28;19991;-62
2022/11/04 13:13:12;;;;;;;;;;;;;;;11.69;100.00;96994.25;5104718;28;19935;-61
2022/11/04 13:15:43;;;;;;;;;;;;;;;11.61;100.00;97000.25;5104462;28;19999;-62